Time;durP1;ratioP1;P1;durP2;ratioP2;P2;SDS_P1;SDS_P2;PMS_P1;PMS_P2;Temp;Humidity;BMP_temperature;BMP_pressure;BME280_temperature;BME280_humidity;BME280_pressure;Samples;Min_cycle;Max_cycle;Signal;HPM_P1;HPM_P2
2023/06/06 00:01:17;;;;;;;12.57;9.32;;;11.00;99.90;;;;;;7378341;19;20733;-66
2023/06/06 00:03:45;;;;;;;12.65;9.63;;;10.90;99.90;;;;;;7378620;19;20058;-66
2023/06/06 00:06:15;;;;;;;14.60;9.98;;;11.00;99.90;;;;;;7378297;19;20026;-66
2023/06/06 00:08:42;;;;;;;13.98;9.88;;;10.90;99.90;;;;;;7375617;19;20018;-67
2023/06/06 00:11:09;;;;;;;12.70;9.38;;;10.90;99.90;;;;;;7377862;19;20019;-66
2023/06/06 00:13:36;;;;;;;12.13;9.27;;;10.80;99.90;;;;;;7377960;19;20074;-66
2023/06/06 00:16:03;;;;;;;15.68;10.45;;;10.80;99.90;;;;;;7377732;19;20019;-66
2023/06/06 00:18:30;;;;;;;14.60;9.32;;;10.80;99.90;;;;;;7378750;19;20029;-67
2023/06/06 00:20:56;;;;;;;15.90;11.13;;;10.80;99.90;;;;;;7369175;19;20019;-66
2023/06/06 00:23:22;;;;;;;13.80;9.77;;;10.80;99.90;;;;;;7377653;19;20014;-66
2023/06/06 00:25:49;;;;;;;15.20;9.68;;;10.70;99.90;;;;;;7379482;19;20015;-67
2023/06/06 00:28:16;;;;;;;13.65;9.98;;;10.70;99.90;;;;;;7378500;19;20015;-67
2023/06/06 00:30:43;;;;;;;14.52;9.80;;;10.70;99.90;;;;;;7377100;19;20022;-66
2023/06/06 00:33:10;;;;;;;14.98;10.07;;;10.70;99.90;;;;;;7374784;19;20486;-66
2023/06/06 00:35:36;;;;;;;12.52;10.15;;;10.70;99.90;;;;;;7374075;19;20021;-66
2023/06/06 00:38:03;;;;;;;13.68;10.82;;;10.60;99.90;;;;;;7374876;19;20035;-67
2023/06/06 00:40:29;;;;;;;14.40;10.00;;;10.60;99.90;;;;;;7373280;19;20820;-66
2023/06/06 00:42:55;;;;;;;13.55;10.68;;;10.60;99.90;;;;;;7375686;19;20086;-66
2023/06/06 00:45:22;;;;;;;14.23;11.07;;;10.50;99.90;;;;;;7381713;19;20046;-69
2023/06/06 00:47:48;;;;;;;12.35;10.18;;;10.50;99.90;;;;;;7377915;19;20025;-66
2023/06/06 00:50:15;;;;;;;13.05;10.18;;;10.50;99.90;;;;;;7377779;19;20424;-66
2023/06/06 00:52:46;;;;;;;12.30;9.05;;;10.50;99.90;;;;;;7376869;19;20393;-69
2023/06/06 00:55:14;;;;;;;14.65;10.50;;;10.50;99.90;;;;;;7371859;19;20051;-69
2023/06/06 00:57:43;;;;;;;16.92;10.32;;;10.40;99.90;;;;;;7369461;19;20015;-69
2023/06/06 01:00:11;;;;;;;13.70;10.23;;;10.40;99.90;;;;;;7374979;19;20014;-67
2023/06/06 01:02:39;;;;;;;14.07;10.07;;;10.40;99.90;;;;;;7375093;19;20010;-67
2023/06/06 01:05:09;;;;;;;14.85;10.40;;;10.30;99.90;;;;;;7377339;19;20373;-66
2023/06/06 01:07:38;;;;;;;14.15;9.90;;;10.30;99.90;;;;;;7375771;19;20094;-66
2023/06/06 01:10:07;;;;;;;15.65;10.20;;;10.20;99.90;;;;;;7375093;19;20807;-66
2023/06/06 01:12:51;;;;;;;15.35;10.55;;;10.20;99.90;;;;;;7371377;19;20010;-67
2023/06/06 01:15:24;;;;;;;18.33;10.77;;;10.20;99.90;;;;;;7376021;19;20683;-66
2023/06/06 01:17:52;;;;;;;16.88;11.32;;;10.10;99.90;;;;;;7375477;19;20396;-66
2023/06/06 01:20:21;;;;;;;15.73;10.73;;;10.10;99.90;;;;;;7374662;19;20030;-67
2023/06/06 01:22:48;;;;;;;13.80;10.45;;;10.20;99.90;;;;;;7373663;19;20029;-67
2023/06/06 01:25:19;;;;;;;15.88;10.95;;;10.10;99.90;;;;;;7373145;19;20015;-67
2023/06/06 01:27:53;;;;;;;15.07;11.07;;;10.10;99.90;;;;;;7376681;19;20026;-68
2023/06/06 01:30:23;;;;;;;14.98;10.35;;;10.10;99.90;;;;;;7374224;19;20026;-66
2023/06/06 01:32:51;;;;;;;13.48;10.88;;;10.10;99.90;;;;;;7374164;19;20018;-67
2023/06/06 01:35:23;;;;;;;15.20;10.70;;;10.00;99.90;;;;;;7374574;19;20026;-68
2023/06/06 01:37:52;;;;;;;;;;;10.00;99.90;;;;;;7375657;19;20030;-68
2023/06/06 01:40:20;;;;;;;15.68;10.65;;;10.10;99.90;;;;;;7375087;19;19930;-67
2023/06/06 01:42:48;;;;;;;13.02;10.65;;;10.00;99.90;;;;;;7374329;19;20360;-66
2023/06/06 01:45:17;;;;;;;14.52;10.73;;;10.00;99.90;;;;;;7370628;19;20641;-70
2023/06/06 01:47:44;;;;;;;17.48;10.75;;;10.10;99.90;;;;;;7371440;19;20019;-70
2023/06/06 01:50:12;;;;;;;15.48;10.30;;;10.00;99.90;;;;;;7369196;19;20482;-70
2023/06/06 01:52:38;;;;;;;18.50;10.77;;;10.00;99.90;;;;;;7370852;19;20048;-70
2023/06/06 01:55:05;;;;;;;16.00;11.27;;;10.00;99.90;;;;;;7370129;19;20029;-71
2023/06/06 01:57:32;;;;;;;13.70;10.80;;;10.10;99.90;;;;;;7371111;19;20037;-68
2023/06/06 01:59:59;;;;;;;14.30;10.73;;;10.00;99.90;;;;;;7364727;19;20039;-68
2023/06/06 02:02:27;;;;;;;15.73;10.90;;;10.00;99.90;;;;;;7360442;19;20019;-69
2023/06/06 02:04:53;;;;;;;15.73;11.02;;;10.00;99.90;;;;;;7371919;19;20023;-69
2023/06/06 02:07:20;;;;;;;15.60;10.68;;;10.00;99.90;;;;;;7370719;19;20060;-70
2023/06/06 02:09:47;;;;;;;14.95;11.10;;;10.00;99.90;;;;;;7364615;19;20030;-70
2023/06/06 02:12:14;;;;;;;15.93;10.85;;;10.00;99.90;;;;;;7356935;19;20026;-70
2023/06/06 02:14:42;;;;;;;13.88;11.32;;;10.00;99.90;;;;;;7371376;19;20291;-70
2023/06/06 02:17:08;;;;;;;16.73;10.68;;;10.00;99.90;;;;;;7367423;19;20492;-70
2023/06/06 02:19:34;;;;;;;14.95;11.02;;;9.90;99.90;;;;;;7371462;19;20018;-69
2023/06/06 02:22:00;;;;;;;15.80;10.07;;;9.90;99.90;;;;;;7367298;19;20018;-69
2023/06/06 02:24:27;;;;;;;16.77;10.90;;;9.90;99.90;;;;;;7373485;19;20014;-69
2023/06/06 02:26:54;;;;;;;15.68;12.40;;;9.80;99.90;;;;;;7367137;19;20026;-69
2023/06/06 02:29:23;;;;;;;16.98;10.43;;;9.80;99.90;;;;;;7368135;19;20022;-68
2023/06/06 02:31:50;;;;;;;15.93;11.02;;;9.80;99.90;;;;;;7370066;19;20366;-69
2023/06/06 02:34:17;;;;;;;15.30;11.20;;;9.80;99.90;;;;;;7367275;19;20011;-68
2023/06/06 02:36:44;;;;;;;15.27;10.63;;;9.80;99.90;;;;;;7372907;19;20375;-66
2023/06/06 02:39:10;;;;;;;16.70;10.90;;;9.70;99.90;;;;;;7370224;19;20018;-67
2023/06/06 02:41:36;;;;;;;16.85;11.52;;;9.70;99.90;;;;;;7367468;19;20026;-66
2023/06/06 02:44:03;;;;;;;14.70;11.25;;;9.80;99.90;;;;;;7370290;19;20038;-66
2023/06/06 02:46:33;;;;;;;16.10;11.82;;;9.70;99.90;;;;;;7369952;19;20026;-69
2023/06/06 02:49:00;;;;;;;16.95;11.73;;;9.70;99.90;;;;;;7368672;19;20026;-69
2023/06/06 02:51:27;;;;;;;17.73;12.18;;;9.70;99.90;;;;;;7367549;19;20015;-69
2023/06/06 02:53:53;;;;;;;18.40;12.32;;;9.70;99.90;;;;;;7369502;19;20042;-66
2023/06/06 02:56:20;;;;;;;17.80;11.57;;;9.70;99.90;;;;;;7371698;19;20477;-66
2023/06/06 02:58:47;;;;;;;15.20;11.48;;;9.70;99.90;;;;;;7370008;19;20576;-66
2023/06/06 03:01:13;;;;;;;21.20;12.80;;;9.70;99.90;;;;;;7369288;19;20588;-68
2023/06/06 03:03:40;;;;;;;15.35;11.45;;;9.60;99.90;;;;;;7368879;19;20022;-65
2023/06/06 03:06:07;;;;;;;17.35;13.05;;;9.60;99.90;;;;;;7369988;19;20632;-66
2023/06/06 03:08:34;;;;;;;15.13;11.38;;;9.60;99.90;;;;;;7372381;19;20529;-68
2023/06/06 03:11:00;;;;;;;20.10;12.07;;;9.60;99.90;;;;;;7368810;19;20903;-67
2023/06/06 03:13:27;;;;;;;17.33;11.95;;;9.60;99.90;;;;;;7371170;19;20018;-67
2023/06/06 03:15:53;;;;;;;18.23;12.40;;;9.60;99.90;;;;;;7370651;19;20039;-67
2023/06/06 03:18:24;;;;;;;18.08;11.75;;;9.60;99.90;;;;;;7372840;19;20026;-66
2023/06/06 03:20:57;;;;;;;19.45;11.90;;;9.60;99.90;;;;;;7375028;19;20023;-67
2023/06/06 03:23:27;;;;;;;18.30;11.75;;;9.60;99.90;;;;;;7375429;19;20022;-66
2023/06/06 03:25:53;;;;;;;17.85;11.38;;;9.60;99.90;;;;;;7376695;19;20018;-69
2023/06/06 03:28:21;;;;;;;14.68;11.10;;;9.60;99.90;;;;;;7374931;19;20031;-69
2023/06/06 03:30:48;;;;;;;18.02;11.13;;;9.60;99.90;;;;;;7374714;19;20023;-69
2023/06/06 03:33:15;;;;;;;18.13;11.35;;;9.70;99.90;;;;;;7374102;19;20007;-69
2023/06/06 03:35:44;;;;;;;18.80;11.55;;;9.70;99.90;;;;;;7373939;19;20011;-69
2023/06/06 03:38:13;;;;;;;21.10;12.68;;;9.70;99.90;;;;;;7374397;19;20417;-69
2023/06/06 03:40:40;;;;;;;16.48;12.13;;;9.70;99.90;;;;;;7369371;19;20379;-69
2023/06/06 03:43:06;;;;;;;20.17;12.77;;;9.70;99.90;;;;;;7370913;19;20683;-69
2023/06/06 03:45:34;;;;;;;18.38;11.15;;;9.70;99.90;;;;;;7377204;19;20469;-66
2023/06/06 03:48:00;;;;;;;15.60;11.18;;;9.70;99.90;;;;;;7373771;19;20478;-67
2023/06/06 03:50:27;;;;;;;18.45;11.40;;;9.80;99.90;;;;;;7374756;19;20754;-66
2023/06/06 03:52:53;;;;;;;16.70;11.77;;;9.80;99.90;;;;;;7374402;19;20676;-67
2023/06/06 03:55:22;;;;;;;23.42;13.55;;;9.80;99.90;;;;;;7373650;19;20049;-66
2023/06/06 03:57:50;;;;;;;16.58;11.88;;;9.80;99.90;;;;;;7377713;19;20045;-66
2023/06/06 04:00:17;;;;;;;19.98;13.05;;;9.80;99.90;;;;;;7373891;19;20283;-66
2023/06/06 04:02:48;;;;;;;18.52;11.88;;;9.80;99.90;;;;;;7374460;19;20029;-66
2023/06/06 04:05:16;;;;;;;15.00;11.52;;;9.80;99.90;;;;;;7375150;19;20007;-66
2023/06/06 04:07:43;;;;;;;18.13;12.32;;;9.90;99.90;;;;;;7377736;19;20048;-66
2023/06/06 04:10:10;;;;;;;18.15;12.20;;;9.90;99.90;;;;;;7372194;19;20010;-66
2023/06/06 04:12:39;;;;;;;21.77;12.15;;;9.90;99.90;;;;;;7372340;19;20493;-65
2023/06/06 04:15:07;;;;;;;20.58;11.80;;;10.00;99.90;;;;;;7375661;19;20485;-66
2023/06/06 04:17:34;;;;;;;17.73;11.77;;;10.00;99.90;;;;;;7372354;19;20038;-66
2023/06/06 04:20:00;;;;;;;18.10;12.40;;;10.10;99.90;;;;;;7376026;19;20030;-65
2023/06/06 04:22:28;;;;;;;16.90;11.45;;;10.10;99.90;;;;;;7369497;19;20027;-66
2023/06/06 04:24:54;;;;;;;18.73;12.38;;;10.20;99.90;;;;;;7377105;19;20021;-66
2023/06/06 04:27:23;;;;;;;16.13;11.65;;;10.20;99.90;;;;;;7370409;19;20026;-65
2023/06/06 04:29:52;;;;;;;19.30;11.88;;;10.20;99.90;;;;;;7359263;19;20014;-64
2023/06/06 04:32:19;;;;;;;17.05;12.70;;;10.30;99.90;;;;;;7358392;19;20023;-66
2023/06/06 04:34:51;;;;;;;17.55;12.70;;;10.40;99.90;;;;;;7360057;19;20041;-65
2023/06/06 04:37:19;;;;;;;20.40;12.27;;;10.30;99.90;;;;;;7358324;19;20822;-65
2023/06/06 04:39:52;;;;;;;17.52;12.70;;;10.40;99.90;;;;;;7358412;19;20022;-66
2023/06/06 04:42:26;;;;;;;19.55;12.23;;;10.40;99.90;;;;;;7361824;19;20018;-66
2023/06/06 04:44:53;;;;;;;16.83;11.50;;;10.60;99.90;;;;;;7360807;19;20012;-66
2023/06/06 04:47:19;;;;;;;20.77;12.60;;;10.60;99.90;;;;;;7360721;19;20490;-66
2023/06/06 04:49:47;;;;;;;17.02;12.80;;;10.70;99.90;;;;;;7359490;19;20022;-66
2023/06/06 04:52:16;;;;;;;18.30;11.60;;;10.80;99.90;;;;;;7360006;19;20455;-65
2023/06/06 04:54:45;;;;;;;18.40;11.52;;;10.80;99.90;;;;;;7362164;19;20014;-64
2023/06/06 04:57:15;;;;;;;19.08;11.40;;;10.90;99.90;;;;;;7362900;19;20018;-65
2023/06/06 04:59:51;;;;;;;15.80;11.20;;;11.00;99.90;;;;;;7361141;19;20727;-65
2023/06/06 05:02:20;;;;;;;18.08;11.13;;;11.10;99.90;;;;;;7358099;19;20706;-65
2023/06/06 05:04:58;;;;;;;17.48;11.32;;;11.20;99.90;;;;;;7363245;19;21097;-72
2023/06/06 05:07:24;;;;;;;14.45;10.32;;;11.40;99.90;;;;;;7365043;19;20491;-72
2023/06/06 05:09:52;;;;;;;14.55;10.38;;;11.70;99.90;;;;;;7361593;19;20086;-72
2023/06/06 05:12:18;;;;;;;12.25;9.27;;;11.90;99.90;;;;;;7359980;19;20022;-65
2023/06/06 05:14:45;;;;;;;11.88;8.95;;;12.20;99.90;;;;;;7364223;19;20019;-65
2023/06/06 05:17:26;;;;;;;13.77;9.25;;;12.40;99.90;;;;;;7361913;19;20046;-64
2023/06/06 05:19:54;;;;;;;14.73;8.13;;;12.60;99.90;;;;;;7362443;19;20018;-64
2023/06/06 05:22:23;;;;;;;14.27;9.02;;;12.90;99.90;;;;;;7358834;19;20089;-64
2023/06/06 05:24:50;;;;;;;11.55;7.93;;;13.00;99.90;;;;;;7358532;19;21214;-65
2023/06/06 05:27:16;;;;;;;11.13;8.10;;;13.30;99.90;;;;;;7363413;19;20024;-72
2023/06/06 05:29:43;;;;;;;15.63;8.38;;;13.50;99.90;;;;;;7359015;19;20022;-73
2023/06/06 05:32:09;;;;;;;11.50;7.25;;;13.50;99.90;;;;;;7357556;19;20866;-72
2023/06/06 05:34:36;;;;;;;15.43;7.80;;;13.70;99.90;;;;;;7359412;19;20807;-72
2023/06/06 05:37:03;;;;;;;13.77;8.52;;;14.00;99.90;;;;;;7358059;19;20477;-65
2023/06/06 05:39:30;;;;;;;11.57;7.40;;;14.10;99.90;;;;;;7358027;19;20026;-69
2023/06/06 05:41:56;;;;;;;14.55;7.88;;;14.20;99.90;;;;;;7354586;19;20885;-65
2023/06/06 05:44:23;;;;;;;13.40;8.25;;;14.30;99.90;;;;;;7348960;19;20030;-65
2023/06/06 05:46:54;;;;;;;15.90;8.68;;;14.50;99.90;;;;;;7357853;19;20690;-65
2023/06/06 05:49:22;;;;;;;13.75;9.07;;;14.40;99.90;;;;;;7356941;19;20098;-66
2023/06/06 05:51:49;;;;;;;10.68;7.38;;;14.50;99.90;;;;;;7359319;19;20025;-66
2023/06/06 05:54:16;;;;;;;16.73;10.13;;;14.50;99.90;;;;;;7354416;19;20035;-65
2023/06/06 05:56:43;;;;;;;18.35;13.30;;;14.50;99.90;;;;;;7358215;19;20026;-65
2023/06/06 05:59:09;;;;;;;20.80;15.95;;;14.50;99.90;;;;;;7361443;19;20030;-66
2023/06/06 06:01:39;;;;;;;16.02;11.20;;;14.70;99.90;;;;;;7361916;19;20861;-66
2023/06/06 06:04:07;;;;;;;15.60;11.18;;;14.80;99.90;;;;;;7360412;19;20738;-65
2023/06/06 06:06:35;;;;;;;16.70;9.77;;;14.60;99.90;;;;;;7362259;19;20015;-76
2023/06/06 06:09:02;;;;;;;15.15;10.32;;;14.70;99.90;;;;;;7360153;19;20858;-71
2023/06/06 06:11:28;;;;;;;12.93;9.45;;;14.70;99.90;;;;;;7371996;19;20392;-72
2023/06/06 06:13:54;;;;;;;26.40;19.65;;;14.90;99.90;;;;;;7362942;19;20018;-72
2023/06/06 06:16:21;;;;;;;20.67;13.50;;;15.00;99.90;;;;;;7363587;19;20043;-72
2023/06/06 06:18:47;;;;;;;17.40;9.18;;;15.00;99.90;;;;;;7362575;19;20034;-72
2023/06/06 06:21:15;;;;;;;29.17;22.55;;;15.10;99.90;;;;;;7370328;19;20022;-72
2023/06/06 06:23:41;;;;;;;29.65;19.65;;;15.30;99.90;;;;;;7365413;19;20042;-72
2023/06/06 06:26:08;;;;;;;19.75;14.88;;;15.50;99.90;;;;;;7363485;19;20550;-72
2023/06/06 06:28:34;;;;;;;33.92;29.17;;;15.80;99.90;;;;;;7362842;19;20018;-72
2023/06/06 06:31:00;;;;;;;14.90;10.13;;;15.90;99.90;;;;;;7360999;19;20022;-72
2023/06/06 06:33:27;;;;;;;26.30;19.45;;;16.20;99.90;;;;;;7365332;19;20018;-72
2023/06/06 06:35:53;;;;;;;16.45;11.05;;;16.20;99.90;;;;;;7367242;19;20191;-70
2023/06/06 06:38:20;;;;;;;12.80;7.57;;;16.30;99.90;;;;;;7352029;19;20387;-67
2023/06/06 06:40:47;;;;;;;37.30;26.33;;;16.50;99.90;;;;;;7359904;19;20730;-65
2023/06/06 06:43:15;;;;;;;14.05;7.50;;;16.50;99.90;;;;;;7354412;19;20019;-66
2023/06/06 06:45:49;;;;;;;14.82;7.50;;;16.70;99.90;;;;;;7355760;19;21409;-67
2023/06/06 06:48:15;;;;;;;13.43;8.85;;;16.90;99.90;;;;;;7353625;19;20043;-66
2023/06/06 06:50:42;;;;;;;18.10;9.30;;;16.90;99.90;;;;;;7353374;19;20015;-67
2023/06/06 06:53:09;;;;;;;11.63;6.22;;;16.90;99.90;;;;;;7360011;19;20014;-67
2023/06/06 06:55:38;;;;;;;8.00;5.82;;;17.20;99.90;;;;;;7362639;19;20014;-68
2023/06/06 06:58:05;;;;;;;11.43;7.50;;;17.30;99.90;;;;;;7362523;19;20077;-67
2023/06/06 07:00:33;;;;;;;10.45;6.32;;;17.50;99.90;;;;;;7365549;19;20597;-66
2023/06/06 07:03:03;;;;;;;11.95;8.05;;;17.60;99.90;;;;;;7365143;19;20617;-67
2023/06/06 07:05:30;;;;;;;14.90;8.35;;;18.00;99.90;;;;;;7365147;19;21132;-68
2023/06/06 07:07:56;;;;;;;14.35;9.75;;;18.00;99.90;;;;;;7364317;19;20533;-65
2023/06/06 07:10:24;;;;;;;17.63;12.43;;;17.80;99.90;;;;;;7364082;19;20078;-65
2023/06/06 07:12:53;;;;;;;11.43;6.90;;;18.10;99.90;;;;;;7365831;19;20992;-66
2023/06/06 07:15:24;;;;;;;62.20;14.20;;;18.30;99.90;;;;;;7366863;19;20030;-63
2023/06/06 07:17:51;;;;;;;10.85;6.80;;;18.20;99.90;;;;;;7364603;19;20021;-66
2023/06/06 07:20:19;;;;;;;11.63;6.60;;;18.40;99.90;;;;;;7374052;19;20481;-66
2023/06/06 07:22:46;;;;;;;18.10;7.78;;;18.70;99.90;;;;;;7378571;19;20033;-67
2023/06/06 07:25:12;;;;;;;15.05;7.13;;;18.80;99.90;;;;;;7365060;19;20023;-68
2023/06/06 07:27:39;;;;;;;16.95;9.48;;;19.10;99.90;;;;;;7367736;19;20003;-64
2023/06/06 07:30:14;;;;;;;15.00;8.15;;;18.90;99.90;;;;;;7366023;19;20035;-66
2023/06/06 07:32:42;;;;;;;14.90;8.82;;;18.90;99.90;;;;;;7362175;19;20703;-66
2023/06/06 07:35:10;;;;;;;16.10;11.77;;;19.20;99.90;;;;;;7361206;19;20097;-66
2023/06/06 07:37:37;;;;;;;8.05;5.22;;;19.50;99.90;;;;;;7363710;19;20611;-66
2023/06/06 07:40:05;;;;;;;8.30;6.30;;;19.50;99.90;;;;;;7361398;19;20588;-66
2023/06/06 07:42:32;;;;;;;8.38;5.60;;;19.80;99.90;;;;;;7362066;19;20466;-67
2023/06/06 07:44:58;;;;;;;13.43;9.05;;;19.80;99.90;;;;;;7361116;19;21336;-66
2023/06/06 07:47:25;;;;;;;17.67;10.15;;;20.00;99.90;;;;;;7361435;19;20038;-67
2023/06/06 07:49:52;;;;;;;8.07;4.63;;;20.20;99.90;;;;;;7363249;19;20022;-67
2023/06/06 07:52:18;;;;;;;10.13;4.45;;;20.30;99.90;;;;;;7361277;19;20782;-67
2023/06/06 07:54:45;;;;;;;22.00;7.88;;;20.40;99.90;;;;;;7365722;19;20023;-68
2023/06/06 07:57:16;;;;;;;21.20;11.40;;;20.00;99.90;;;;;;7362369;19;20106;-66
2023/06/06 07:59:45;;;;;;;7.43;4.53;;;20.30;99.90;;;;;;7364512;19;20019;-67
2023/06/06 08:02:15;;;;;;;14.55;8.60;;;20.40;99.90;;;;;;7362289;19;20831;-68
2023/06/06 08:04:45;;;;;;;11.90;4.80;;;20.60;99.90;;;;;;7363974;19;21548;-67
2023/06/06 08:07:14;;;;;;;16.25;9.45;;;20.70;99.90;;;;;;7360274;19;20015;-66
2023/06/06 08:09:41;;;;;;;9.20;5.18;;;20.70;99.90;;;;;;7363924;19;20030;-66
2023/06/06 08:12:08;;;;;;;9.05;4.38;;;20.90;99.90;;;;;;7359291;19;20453;-67
2023/06/06 08:14:36;;;;;;;12.93;5.63;;;21.00;99.90;;;;;;7365166;19;20438;-84
2023/06/06 08:17:04;;;;;;;11.57;6.65;;;21.20;99.90;;;;;;7361767;19;20908;-84
2023/06/06 08:19:31;;;;;;;10.10;5.20;;;21.10;99.90;;;;;;7366059;19;20443;-84
2023/06/06 08:21:58;;;;;;;8.02;5.18;;;21.10;99.90;;;;;;7366366;19;20022;-85
2023/06/06 08:24:24;;;;;;;17.80;10.85;;;21.40;99.90;;;;;;7367203;19;20649;-84
2023/06/06 08:26:51;;;;;;;15.90;8.05;;;21.40;99.90;;;;;;7370473;19;20018;-84
2023/06/06 08:29:18;;;;;;;10.75;7.10;;;21.80;99.90;;;;;;7370600;19;20394;-85
2023/06/06 08:31:45;;;;;;;12.60;6.80;;;21.90;99.90;;;;;;7368520;19;20015;-85
2023/06/06 08:34:12;;;;;;;15.68;11.02;;;22.10;99.90;;;;;;7367510;19;20319;-84
2023/06/06 08:36:40;;;;;;;11.52;4.82;;;22.30;99.90;;;;;;7368547;19;20023;-85
2023/06/06 08:39:09;;;;;;;10.50;6.05;;;22.30;99.90;;;;;;7370185;19;20022;-84
2023/06/06 08:41:43;;;;;;;11.27;5.43;;;22.40;99.90;;;;;;7368107;19;20021;-84
2023/06/06 08:44:12;;;;;;;10.10;6.03;;;22.40;99.90;;;;;;7366735;19;20841;-85
2023/06/06 08:46:40;;;;;;;9.13;4.22;;;22.50;99.90;;;;;;7366066;19;20061;-85
2023/06/06 08:49:10;;;;;;;13.25;4.32;;;22.70;99.90;;;;;;7369375;19;20549;-83
2023/06/06 08:51:37;;;;;;;9.35;4.72;;;23.00;99.40;;;;;;7366418;19;20014;-84
2023/06/06 08:54:04;;;;;;;14.35;9.02;;;23.10;98.10;;;;;;7361442;19;20285;-85
2023/06/06 08:56:31;;;;;;;16.02;11.18;;;23.10;97.60;;;;;;7365096;19;20010;-85
2023/06/06 08:58:58;;;;;;;10.38;7.43;;;22.80;95.20;;;;;;7366100;19;20120;-84
2023/06/06 09:01:26;;;;;;;15.85;9.70;;;23.20;95.40;;;;;;7361884;19;20029;-85
2023/06/06 09:03:56;;;;;;;19.52;14.68;;;23.00;94.50;;;;;;7360638;19;20022;-85
2023/06/06 09:06:25;;;;;;;13.00;9.07;;;23.30;94.60;;;;;;7361192;19;20454;-84
2023/06/06 09:08:54;;;;;;;8.10;5.07;;;23.60;94.10;;;;;;7365595;19;20018;-83
2023/06/06 09:11:21;;;;;;;11.38;6.95;;;23.60;90.10;;;;;;7362695;19;20121;-85
2023/06/06 09:13:50;;;;;;;10.48;6.18;;;23.80;91.20;;;;;;7365527;19;20038;-84
2023/06/06 09:16:18;;;;;;;9.93;4.78;;;23.90;91.50;;;;;;7357440;19;20014;-84
2023/06/06 09:18:49;;;;;;;8.50;5.03;;;24.00;90.80;;;;;;7364032;19;20018;-83
2023/06/06 09:21:18;;;;;;;13.48;9.65;;;23.70;85.70;;;;;;7359418;19;20408;-85
2023/06/06 09:23:45;;;;;;;12.52;6.97;;;23.80;87.50;;;;;;7364111;19;20085;-85
2023/06/06 09:26:19;;;;;;;9.55;5.82;;;24.00;86.40;;;;;;7359285;19;20654;-84
2023/06/06 09:28:45;;;;;;;9.18;5.60;;;24.30;81.30;;;;;;7362634;19;20458;-85
2023/06/06 09:31:37;;;;;;;18.00;14.23;;;24.10;78.90;;;;;;7364182;19;20019;-84
2023/06/06 09:34:08;;;;;;;9.52;5.10;;;24.30;77.90;;;;;;7363516;19;20026;-84
2023/06/06 09:36:40;;;;;;;16.13;14.00;;;24.70;77.60;;;;;;7364981;19;20081;-84
2023/06/06 09:39:15;;;;;;;18.42;14.52;;;25.00;77.00;;;;;;7363397;19;20033;-84
2023/06/06 09:41:46;;;;;;;17.08;12.90;;;25.10;74.40;;;;;;7365929;19;20022;-85
2023/06/06 09:44:21;;;;;;;15.07;8.10;;;24.60;72.80;;;;;;7365096;19;20479;-85
2023/06/06 09:46:48;;;;;;;13.15;10.77;;;24.80;71.50;;;;;;7368620;19;21433;-84
2023/06/06 09:49:15;;;;;;;22.70;17.95;;;24.90;72.90;;;;;;7365391;19;20479;-86
2023/06/06 09:51:43;;;;;;;22.17;14.68;;;25.10;72.00;;;;;;7365111;19;20086;-84
2023/06/06 09:54:11;;;;;;;17.90;15.23;;;25.20;70.30;;;;;;7359013;19;20017;-84
2023/06/06 09:56:41;;;;;;;13.43;9.52;;;25.10;70.80;;;;;;7356070;19;20031;-85
2023/06/06 09:59:08;;;;;;;11.98;8.07;;;25.20;70.90;;;;;;7361692;19;20078;-84
2023/06/06 10:01:42;;;;;;;13.27;8.18;;;25.50;69.20;;;;;;7357274;19;20512;-84
2023/06/06 10:04:12;;;;;;;8.93;5.43;;;25.40;68.40;;;;;;7365112;19;20029;-83
2023/06/06 10:06:43;;;;;;;15.43;9.65;;;25.60;66.80;;;;;;7358897;19;20450;-84
2023/06/06 10:09:11;;;;;;;14.07;9.90;;;25.50;66.50;;;;;;7364668;19;20029;-85
2023/06/06 10:11:37;;;;;;;12.73;11.02;;;25.80;65.90;;;;;;7360466;19;20350;-84
2023/06/06 10:14:06;;;;;;;7.70;4.28;;;25.90;65.90;;;;;;7362759;19;20023;-84
2023/06/06 10:16:37;;;;;;;9.75;7.47;;;26.00;63.20;;;;;;7357688;19;20015;-84
2023/06/06 10:19:03;;;;;;;12.18;7.65;;;26.00;63.30;;;;;;7359870;19;20026;-84
2023/06/06 10:21:31;;;;;;;8.80;5.10;;;26.50;62.60;;;;;;7359920;19;20011;-83
2023/06/06 10:23:57;;;;;;;9.43;6.10;;;26.00;61.40;;;;;;7355855;19;20043;-84
2023/06/06 10:26:37;;;;;;;11.82;5.63;;;26.00;62.60;;;;;;7359562;19;20017;-84
2023/06/06 10:29:14;;;;;;;13.88;11.68;;;25.90;62.00;;;;;;7357094;19;20033;-83
2023/06/06 10:31:59;;;;;;;11.90;6.95;;;25.90;61.80;;;;;;7361968;19;20023;-83
2023/06/06 10:34:33;;;;;;;9.88;6.88;;;26.10;61.50;;;;;;7361091;19;20025;-83
2023/06/06 10:37:20;;;;;;;10.43;5.15;;;26.20;61.50;;;;;;7362254;19;20399;-82
2023/06/06 10:39:58;;;;;;;7.53;4.80;;;26.40;61.00;;;;;;7359345;19;20019;-83
2023/06/06 10:42:40;;;;;;;13.93;8.52;;;26.60;61.20;;;;;;7359056;19;20689;-84
2023/06/06 10:45:08;;;;;;;13.30;9.63;;;26.40;60.30;;;;;;7360746;19;20018;-84
2023/06/06 10:47:42;;;;;;;16.08;14.15;;;26.40;61.20;;;;;;7357489;19;20715;-83
2023/06/06 10:50:12;;;;;;;12.45;9.65;;;26.50;59.70;;;;;;7359508;19;20029;-84
2023/06/06 10:52:45;;;;;;;16.08;11.25;;;26.70;59.00;;;;;;7360031;19;20030;-84
2023/06/06 10:55:23;;;;;;;11.48;5.88;;;26.80;59.10;;;;;;7357272;19;20018;-84
2023/06/06 10:58:10;;;;;;;10.70;8.13;;;26.60;58.50;;;;;;7360714;19;20431;-84
2023/06/06 11:00:42;;;;;;;15.75;13.07;;;26.40;58.50;;;;;;7364139;19;20842;-84
2023/06/06 11:03:16;;;;;;;12.35;7.88;;;26.80;59.20;;;;;;7362506;19;20026;-83
2023/06/06 11:06:01;;;;;;;15.85;11.82;;;26.90;59.40;;;;;;7359849;19;20022;-83
2023/06/06 11:08:36;;;;;;;13.20;7.68;;;26.90;58.20;;;;;;7364216;19;20025;-83
2023/06/06 11:11:17;;;;;;;11.18;8.25;;;27.10;56.90;;;;;;7362199;19;20077;-84
2023/06/06 11:14:00;;;;;;;13.65;11.73;;;27.00;56.90;;;;;;7356770;19;20027;-83
2023/06/06 11:16:40;;;;;;;13.80;9.93;;;27.00;57.30;;;;;;7357110;19;20013;-84
2023/06/06 11:19:21;;;;;;;20.90;16.50;;;27.00;57.70;;;;;;7360110;19;20023;-85
2023/06/06 11:21:49;;;;;;;19.17;15.38;;;27.20;56.90;;;;;;7359548;19;20026;-85
2023/06/06 11:24:21;;;;;;;7.90;4.97;;;27.00;57.00;;;;;;7359674;19;20022;-84
2023/06/06 11:26:53;;;;;;;11.65;5.68;;;27.10;57.30;;;;;;7359165;19;20120;-84
2023/06/06 11:29:23;;;;;;;11.25;5.85;;;27.20;57.00;;;;;;7361012;19;20104;-84
2023/06/06 11:31:49;;;;;;;10.55;7.85;;;27.20;56.90;;;;;;7361648;19;20020;-85
2023/06/06 11:34:17;;;;;;;11.38;7.43;;;27.20;56.40;;;;;;7359870;19;20021;-84
2023/06/06 11:36:46;;;;;;;13.70;8.30;;;26.70;55.90;;;;;;7362802;19;20648;-84
2023/06/06 11:39:14;;;;;;;11.80;7.38;;;27.10;56.90;;;;;;7357497;19;20015;-85
2023/06/06 11:41:46;;;;;;;9.73;6.65;;;27.00;56.70;;;;;;7366151;19;20022;-85
2023/06/06 11:44:16;;;;;;;8.48;6.47;;;27.00;56.20;;;;;;7368173;19;20024;-85
2023/06/06 11:46:48;;;;;;;9.85;6.25;;;27.20;55.90;;;;;;7366881;19;20014;-85
2023/06/06 11:49:17;;;;;;;17.92;15.52;;;27.30;54.80;;;;;;7365221;19;20019;-84
2023/06/06 11:51:53;;;;;;;10.45;7.10;;;27.10;56.20;;;;;;7365777;19;20022;-84
2023/06/06 11:54:20;;;;;;;9.18;5.22;;;27.60;56.30;;;;;;7365835;19;20019;-83
2023/06/06 11:56:51;;;;;;;12.95;6.90;;;27.40;55.60;;;;;;7367048;19;20085;-83
2023/06/06 11:59:21;;;;;;;21.70;18.55;;;27.10;55.30;;;;;;7364676;19;20029;-83
2023/06/06 12:01:54;;;;;;;14.05;12.50;;;27.90;55.30;;;;;;7366994;19;20043;-84
2023/06/06 12:04:23;;;;;;;11.93;7.88;;;27.50;53.80;;;;;;7363612;19;20562;-84
2023/06/06 12:06:55;;;;;;;20.77;14.77;;;27.30;54.70;;;;;;7364670;19;20441;-84
2023/06/06 12:09:25;;;;;;;16.67;12.05;;;27.60;55.20;;;;;;7366514;19;20025;-84
2023/06/06 12:12:05;;;;;;;9.37;6.13;;;27.60;54.40;;;;;;7367113;19;20015;-83
2023/06/06 12:14:32;;;;;;;23.65;17.33;;;27.40;55.80;;;;;;7366490;19;20645;-86
2023/06/06 12:17:08;;;;;;;15.98;12.98;;;27.80;55.00;;;;;;7370780;19;20354;-85
2023/06/06 12:19:36;;;;;;;18.73;15.23;;;27.80;54.10;;;;;;7371450;19;20019;-84
2023/06/06 12:22:05;;;;;;;9.30;5.15;;;27.80;53.60;;;;;;7366746;19;20035;-84
2023/06/06 12:24:33;;;;;;;11.50;4.97;;;28.00;54.10;;;;;;7365807;19;20494;-84
2023/06/06 12:27:02;;;;;;;11.15;9.63;;;28.10;54.20;;;;;;7361916;19;20543;-83
2023/06/06 12:29:33;;;;;;;9.57;5.20;;;28.30;54.00;;;;;;7363745;19;20049;-84
2023/06/06 12:32:16;;;;;;;15.32;7.22;;;28.30;53.00;;;;;;7365017;19;20022;-84
2023/06/06 12:34:49;;;;;;;24.05;21.48;;;28.40;52.80;;;;;;7367220;19;20030;-85
2023/06/06 12:37:17;;;;;;;10.23;7.03;;;28.60;52.90;;;;;;7362738;19;20030;-85
2023/06/06 12:39:45;;;;;;;8.20;6.10;;;28.30;52.10;;;;;;7374731;19;20043;-84
2023/06/06 12:42:16;;;;;;;16.77;13.75;;;27.90;52.10;;;;;;7370642;19;20018;-85